createdAt,value
2022-09-21T00:00:53.211Z,8.05
2022-09-21T00:03:20.204Z,6.00
2022-09-21T00:05:46.684Z,8.38
2022-09-21T00:08:14.557Z,9.00
2022-09-21T00:10:41.109Z,8.40
2022-09-21T00:13:08.859Z,8.10
2022-09-21T00:15:35.482Z,6.13
2022-09-21T00:18:02.991Z,6.53
2022-09-21T00:20:29.550Z,7.25
2022-09-21T00:22:56.038Z,6.90
2022-09-21T00:25:22.530Z,8.32
2022-09-21T00:27:51.396Z,7.35
2022-09-21T00:30:18.636Z,6.15
2022-09-21T00:32:45.197Z,8.98
2022-09-21T00:35:11.680Z,8.68
2022-09-21T00:37:38.156Z,11.02
2022-09-21T00:40:05.230Z,10.07
2022-09-21T00:42:34.452Z,9.90
2022-09-21T00:45:01.709Z,7.13
2022-09-21T00:47:37.531Z,10.05
2022-09-21T00:50:08.946Z,9.45
2022-09-21T00:52:40.331Z,7.75
2022-09-21T00:55:08.292Z,9.20
2022-09-21T00:57:35.545Z,9.52
2022-09-21T01:00:08.374Z,9.65
2022-09-21T01:02:36.827Z,9.30
2022-09-21T01:05:06.202Z,8.35
2022-09-21T01:07:35.187Z,7.80
2022-09-21T01:10:10.745Z,8.05
2022-09-21T01:12:43.206Z,10.05
2022-09-21T01:15:28.548Z,8.60
2022-09-21T01:18:20.580Z,9.48
2022-09-21T01:21:04.764Z,8.57
2022-09-21T01:23:40.231Z,7.05
2022-09-21T01:26:13.616Z,7.60
2022-09-21T01:29:07.540Z,7.45
2022-09-21T01:31:40.266Z,6.93
2022-09-21T01:34:34.838Z,7.83
2022-09-21T01:37:07.092Z,9.07
2022-09-21T01:39:35.039Z,6.63
2022-09-21T01:42:03.611Z,8.85
2022-09-21T01:44:33.263Z,6.03
2022-09-21T01:47:02.628Z,5.43
2022-09-21T01:49:38.070Z,5.70
2022-09-21T01:52:40.071Z,6.30
2022-09-21T01:55:32.638Z,6.97
2022-09-21T01:58:06.845Z,6.53
2022-09-21T02:00:35.741Z,5.43
2022-09-21T02:03:09.918Z,6.35
2022-09-21T02:05:36.941Z,6.75
2022-09-21T02:08:05.844Z,5.32
2022-09-21T02:10:39.369Z,6.63
2022-09-21T02:13:07.154Z,6.55
2022-09-21T02:15:52.061Z,5.35
2022-09-21T02:18:57.719Z,7.82
2022-09-21T02:21:33.158Z,5.78
2022-09-21T02:24:25.660Z,7.15
2022-09-21T02:27:05.840Z,8.10
2022-09-21T02:29:50.713Z,7.68
2022-09-21T02:32:33.433Z,5.47
2022-09-21T02:35:10.910Z,7.47
2022-09-21T02:37:40.247Z,6.22
2022-09-21T02:40:32.961Z,5.80
2022-09-21T02:43:06.136Z,5.90
2022-09-21T02:45:41.680Z,5.45
2022-09-21T02:48:13.391Z,5.93
2022-09-21T02:50:47.749Z,6.07
2022-09-21T02:53:20.664Z,7.38
2022-09-21T02:55:52.038Z,5.47
2022-09-21T02:58:24.369Z,7.13
2022-09-21T03:00:51.067Z,5.72
2022-09-21T03:03:20.105Z,6.97
2022-09-21T03:05:48.974Z,5.88
2022-09-21T03:08:16.816Z,8.32
2022-09-21T03:10:43.373Z,5.93
2022-09-21T03:13:10.686Z,6.15
2022-09-21T03:15:38.552Z,7.65
2022-09-21T03:18:09.413Z,7.15
2022-09-21T03:20:38.818Z,7.43
2022-09-21T03:23:05.725Z,6.55
2022-09-21T03:25:33.218Z,4.43
2022-09-21T03:28:01.213Z,6.50
2022-09-21T03:30:29.256Z,5.93
2022-09-21T03:32:56.116Z,9.55
2022-09-21T03:35:23.897Z,6.80
2022-09-21T03:37:50.357Z,6.85
2022-09-21T03:40:17.487Z,7.80
2022-09-21T03:42:44.053Z,7.97
2022-09-21T03:45:11.970Z,7.75
2022-09-21T03:47:39.689Z,8.43
2022-09-21T03:50:09.936Z,8.05
2022-09-21T03:52:37.830Z,23.20
2022-09-21T03:55:06.545Z,7.72
2022-09-21T03:57:34.434Z,8.23
2022-09-21T04:00:03.753Z,7.05
2022-09-21T04:02:32.824Z,6.20
2022-09-21T04:04:59.686Z,8.18
2022-09-21T04:07:26.310Z,5.75
2022-09-21T04:09:53.603Z,5.97
2022-09-21T04:12:23.309Z,8.13
2022-09-21T04:14:49.812Z,7.55
2022-09-21T04:17:16.618Z,9.73
2022-09-21T04:19:45.107Z,9.02
2022-09-21T04:22:12.597Z,8.48
2022-09-21T04:24:41.012Z,8.38
2022-09-21T04:27:09.073Z,6.53
2022-09-21T04:29:35.913Z,8.70
2022-09-21T04:32:04.519Z,10.23
2022-09-21T04:34:31.252Z,7.88
2022-09-21T04:36:58.768Z,11.82
2022-09-21T04:39:26.238Z,10.20
2022-09-21T04:41:52.976Z,10.52
2022-09-21T04:44:19.525Z,12.98
2022-09-21T04:46:46.725Z,12.48
2022-09-21T04:49:13.374Z,14.38
2022-09-21T04:51:40.045Z,12.30
2022-09-21T04:54:06.721Z,11.38
2022-09-21T04:56:34.132Z,13.20
2022-09-21T04:59:00.636Z,12.00
2022-09-21T05:01:27.818Z,11.52
2022-09-21T05:03:54.530Z,10.63
2022-09-21T05:06:21.107Z,10.65
2022-09-21T05:09:06.256Z,10.68
2022-09-21T05:11:33.518Z,8.40
2022-09-21T05:14:00.003Z,10.95
2022-09-21T05:16:29.014Z,10.27
2022-09-21T05:18:55.935Z,9.90
2022-09-21T05:21:22.798Z,9.95
2022-09-21T05:23:49.294Z,10.80
2022-09-21T05:26:21.792Z,10.70
2022-09-21T05:28:48.526Z,11.38
2022-09-21T05:31:18.605Z,9.50
2022-09-21T05:34:16.209Z,12.05
2022-09-21T05:37:05.721Z,9.40
2022-09-21T05:39:32.435Z,11.00
2022-09-21T05:41:59.302Z,9.15
2022-09-21T05:44:26.286Z,11.15
2022-09-21T05:46:59.304Z,10.98
2022-09-21T05:49:54.372Z,10.40
2022-09-21T05:52:42.029Z,11.20
2022-09-21T05:55:40.488Z,9.80
2022-09-21T05:58:54.845Z,9.13
2022-09-21T06:02:01.592Z,12.40
2022-09-21T06:04:31.467Z,9.95
2022-09-21T06:06:57.938Z,8.60
2022-09-21T06:09:25.874Z,10.77
2022-09-21T06:11:52.507Z,10.57
2022-09-21T06:14:24.652Z,15.85
2022-09-21T06:16:52.037Z,10.20
2022-09-21T06:19:18.793Z,9.32
2022-09-21T06:21:45.466Z,9.43
2022-09-21T06:24:12.094Z,11.57
2022-09-21T06:26:38.679Z,9.90
2022-09-21T06:29:05.230Z,9.90
2022-09-21T06:31:31.804Z,9.25
2022-09-21T06:33:58.291Z,13.75
2022-09-21T06:36:24.757Z,11.52
2022-09-21T06:38:51.278Z,10.25
2022-09-21T06:41:21.308Z,10.95
2022-09-21T06:43:48.260Z,13.95
2022-09-21T06:46:14.917Z,7.25
2022-09-21T06:48:41.418Z,9.93
2022-09-21T06:51:07.960Z,9.43
2022-09-21T06:53:34.778Z,8.40
2022-09-21T06:56:09.650Z,12.60
2022-09-21T06:58:37.689Z,8.82
2022-09-21T07:01:09.486Z,7.80
2022-09-21T07:03:36.826Z,8.13
2022-09-21T07:06:04.233Z,10.38
2022-09-21T07:11:17.472Z,8.82
2022-09-21T07:13:45.422Z,8.13
2022-09-21T07:16:12.611Z,9.23
2022-09-21T07:18:43.788Z,8.18
2022-09-21T07:21:11.636Z,9.05
2022-09-21T07:23:38.438Z,9.75
2022-09-21T07:26:13.356Z,11.20
2022-09-21T07:28:40.180Z,10.85
2022-09-21T07:31:08.735Z,9.73
2022-09-21T07:33:36.349Z,9.07
2022-09-21T07:36:10.276Z,8.85
2022-09-21T07:38:39.835Z,11.70
2022-09-21T07:41:15.196Z,9.63
2022-09-21T07:43:41.817Z,7.72
2022-09-21T07:46:13.086Z,7.78
2022-09-21T07:48:40.094Z,11.20
2022-09-21T07:51:11.671Z,8.75
2022-09-21T07:53:40.029Z,9.13
2022-09-21T07:56:12.645Z,5.53
2022-09-21T07:58:58.179Z,5.20
2022-09-21T08:01:25.566Z,6.53
2022-09-21T08:03:53.839Z,6.75
2022-09-21T08:06:21.351Z,6.97
2022-09-21T08:08:48.236Z,6.03
2022-09-21T08:11:19.776Z,8.13
2022-09-21T08:13:46.335Z,6.85
2022-09-21T08:16:13.005Z,6.65
2022-09-21T08:18:41.169Z,7.47
2022-09-21T08:21:11.966Z,8.73
2022-09-21T08:23:40.548Z,6.35
2022-09-21T08:26:08.911Z,6.00
2022-09-21T08:28:40.257Z,8.02
2022-09-21T08:31:11.045Z,6.57
2022-09-21T08:33:40.208Z,6.63
2022-09-21T08:36:07.280Z,8.15
2022-09-21T08:38:35.610Z,6.45
2022-09-21T08:41:12.546Z,5.30
2022-09-21T08:43:42.044Z,4.88
2022-09-21T08:46:17.003Z,5.15
2022-09-21T08:48:53.294Z,4.70
2022-09-21T08:51:28.689Z,4.45
2022-09-21T08:54:20.349Z,4.68
2022-09-21T08:57:04.501Z,5.78
2022-09-21T08:59:33.158Z,4.30
2022-09-21T09:02:09.172Z,5.30
2022-09-21T09:04:36.069Z,3.20
2022-09-21T09:07:23.679Z,4.85
2022-09-21T09:10:14.951Z,3.95
2022-09-21T09:13:15.189Z,4.03
2022-09-21T09:15:55.830Z,4.30
2022-09-21T09:18:22.333Z,3.80
2022-09-21T09:21:03.217Z,3.80
2022-09-21T09:23:37.719Z,4.55
2022-09-21T09:26:14.765Z,3.13
2022-09-21T09:29:01.975Z,5.93
2022-09-21T09:31:33.051Z,3.58
2022-09-21T09:36:58.889Z,4.03
2022-09-21T09:39:29.535Z,2.80
2022-09-21T09:42:07.985Z,2.88
2022-09-21T09:44:40.451Z,3.20
2022-09-21T09:47:28.890Z,3.72
2022-09-21T09:50:35.303Z,3.35
2022-09-21T09:53:21.465Z,3.47
2022-09-21T09:55:56.859Z,2.40
2022-09-21T09:58:34.155Z,2.65
2022-09-21T10:01:00.643Z,3.83
2022-09-21T10:03:27.906Z,3.30
2022-09-21T10:05:55.302Z,3.17
2022-09-21T10:08:42.131Z,3.00
2022-09-21T10:11:11.001Z,2.50
2022-09-21T10:13:40.563Z,3.00
2022-09-21T10:16:14.384Z,2.25
2022-09-21T10:19:01.238Z,2.25
2022-09-21T10:21:37.765Z,1.80
2022-09-21T10:24:06.765Z,2.33
2022-09-21T10:26:39.574Z,2.88
2022-09-21T10:29:21.877Z,2.97
2022-09-21T10:32:17.583Z,2.65
2022-09-21T10:35:13.195Z,3.10
2022-09-21T10:37:41.400Z,3.03
2022-09-21T10:40:20.049Z,2.47
2022-09-21T10:42:52.099Z,3.55
2022-09-21T10:45:21.614Z,3.42
2022-09-21T10:47:49.485Z,2.47
2022-09-21T10:50:29.095Z,3.65
2022-09-21T10:53:00.244Z,3.47
2022-09-21T10:55:29.241Z,3.78
2022-09-21T10:57:56.195Z,2.85
2022-09-21T11:00:25.721Z,2.85
2022-09-21T11:02:54.903Z,2.67
2022-09-21T11:05:25.561Z,2.30
2022-09-21T11:07:57.170Z,3.22
2022-09-21T11:10:34.178Z,2.58
2022-09-21T11:13:19.884Z,3.47
2022-09-21T11:16:13.375Z,2.70
2022-09-21T11:18:45.521Z,2.13
2022-09-21T11:21:21.051Z,2.70
2022-09-21T11:24:00.301Z,2.35
2022-09-21T11:26:40.951Z,1.95
2022-09-21T11:29:18.768Z,2.13
2022-09-21T11:32:06.212Z,2.58
2022-09-21T11:35:03.902Z,3.22
2022-09-21T11:38:04.541Z,2.97
2022-09-21T11:40:40.472Z,2.45
2022-09-21T11:43:36.561Z,4.55
2022-09-21T11:46:22.577Z,4.07
2022-09-21T11:49:01.355Z,2.80
2022-09-21T11:51:45.650Z,3.05
2022-09-21T11:54:36.945Z,2.30
2022-09-21T11:57:20.213Z,3.75
2022-09-21T12:00:04.094Z,2.13
2022-09-21T12:03:08.215Z,3.08
2022-09-21T12:05:42.337Z,3.65
2022-09-21T12:08:20.933Z,2.30
2022-09-21T12:11:03.174Z,1.70
2022-09-21T12:13:42.279Z,2.45
2022-09-21T12:16:16.497Z,2.95
2022-09-21T12:18:58.766Z,2.38
2022-09-21T12:21:31.595Z,2.95
2022-09-21T12:24:04.345Z,1.88
2022-09-21T12:26:47.789Z,1.63
2022-09-21T12:29:25.291Z,1.67
2022-09-21T12:32:05.148Z,5.10
2022-09-21T12:34:41.032Z,2.10
2022-09-21T12:37:18.502Z,3.00
2022-09-21T12:39:57.528Z,1.67
2022-09-21T12:42:29.863Z,1.38
2022-09-21T12:45:08.042Z,1.95
2022-09-21T12:48:07.455Z,1.67
2022-09-21T12:50:55.045Z,1.17
2022-09-21T12:53:26.033Z,1.92
2022-09-21T12:55:53.032Z,1.45
2022-09-21T12:58:35.105Z,2.10
2022-09-21T13:01:07.499Z,1.20
2022-09-21T13:03:37.204Z,1.10
2022-09-21T13:06:22.474Z,1.98
2022-09-21T13:11:22.656Z,1.90
2022-09-21T13:13:52.920Z,1.95
2022-09-21T13:16:35.240Z,2.40
2022-09-21T13:19:05.135Z,2.35
2022-09-21T13:21:33.419Z,1.42
2022-09-21T13:24:02.805Z,1.58
2022-09-21T13:26:59.984Z,2.55
2022-09-21T13:29:31.455Z,1.77
2022-09-21T13:32:18.275Z,2.20
2022-09-21T13:34:45.519Z,2.58
2022-09-21T13:37:12.341Z,1.73
2022-09-21T13:39:50.765Z,2.20
2022-09-21T13:42:47.934Z,2.42
2022-09-21T13:45:18.413Z,3.25
2022-09-21T13:47:52.050Z,2.63
2022-09-21T13:52:52.260Z,3.35
2022-09-21T13:55:38.297Z,3.28
2022-09-21T13:58:21.862Z,2.15
2022-09-21T14:00:54.358Z,2.08
2022-09-21T14:03:58.280Z,2.47
2022-09-21T14:06:30.929Z,1.90
2022-09-21T14:09:08.734Z,2.87
2022-09-21T14:11:39.043Z,1.88
2022-09-21T14:14:14.627Z,2.00
2022-09-21T14:16:47.532Z,2.40
2022-09-21T14:19:17.033Z,1.90
2022-09-21T14:22:16.298Z,2.60
2022-09-21T14:24:47.665Z,3.33
2022-09-21T14:27:45.469Z,4.65
2022-09-21T14:30:25.553Z,2.85
2022-09-21T14:32:56.803Z,5.72
2022-09-21T14:35:30.288Z,2.63
2022-09-21T14:38:10.793Z,2.38
2022-09-21T14:40:42.239Z,3.03
2022-09-21T14:43:15.559Z,6.20
2022-09-21T14:46:13.011Z,2.83
2022-09-21T14:48:42.248Z,2.95
2022-09-21T14:51:25.770Z,3.22
2022-09-21T14:54:14.761Z,3.47
2022-09-21T14:57:13.602Z,2.85
2022-09-21T15:00:22.171Z,2.55
2022-09-21T15:03:18.880Z,2.42
2022-09-21T15:06:31.298Z,2.80
2022-09-21T15:09:42.475Z,3.33
2022-09-21T15:12:16.185Z,2.92
2022-09-21T15:14:51.185Z,2.30
2022-09-21T15:17:32.385Z,2.15
2022-09-21T15:20:00.946Z,2.40
2022-09-21T15:22:28.131Z,3.13
2022-09-21T15:24:57.045Z,4.10
2022-09-21T15:27:27.185Z,3.00
2022-09-21T15:29:55.937Z,3.88
2022-09-21T15:32:34.453Z,3.05
2022-09-21T15:35:02.559Z,3.75
2022-09-21T15:37:34.401Z,2.50
2022-09-21T15:40:02.381Z,4.25
2022-09-21T15:42:30.047Z,4.45
2022-09-21T15:45:13.768Z,3.05
2022-09-21T15:47:42.185Z,3.55
2022-09-21T15:50:13.268Z,2.70
2022-09-21T15:52:45.898Z,2.92
2022-09-21T15:55:21.511Z,2.70
2022-09-21T15:57:51.364Z,2.50
2022-09-21T16:00:21.405Z,3.63
2022-09-21T16:03:04.190Z,2.30
2022-09-21T16:05:48.206Z,2.50
2022-09-21T16:08:36.671Z,1.90
2022-09-21T16:11:23.266Z,3.08
2022-09-21T16:14:22.881Z,3.58
2022-09-21T16:17:13.750Z,2.05
2022-09-21T16:19:43.710Z,3.22
2022-09-21T16:22:15.557Z,2.53
2022-09-21T16:24:54.208Z,4.35
2022-09-21T16:27:24.899Z,4.63
2022-09-21T16:29:54.379Z,3.58
2022-09-21T16:32:27.345Z,2.90
2022-09-21T16:35:22.068Z,2.28
2022-09-21T16:37:48.989Z,3.25
2022-09-21T16:40:15.474Z,2.80
2022-09-21T16:42:43.145Z,3.15
2022-09-21T16:45:21.324Z,2.83
2022-09-21T16:47:47.774Z,3.00
2022-09-21T16:50:18.920Z,10.38
2022-09-21T16:52:48.471Z,22.63
2022-09-21T16:55:18.166Z,9.90
2022-09-21T16:57:48.305Z,4.00
2022-09-21T17:00:20.200Z,3.70
2022-09-21T17:02:48.078Z,5.95
2022-09-21T17:05:18.053Z,4.75
2022-09-21T17:07:55.545Z,5.43
2022-09-21T17:10:37.354Z,8.85
2022-09-21T17:13:07.997Z,11.68
2022-09-21T17:15:36.332Z,11.57
2022-09-21T17:18:03.765Z,13.13
2022-09-21T17:20:44.745Z,14.60
2022-09-21T17:23:11.643Z,10.10
2022-09-21T17:25:38.405Z,17.15
2022-09-21T17:28:14.282Z,18.80
2022-09-21T17:30:42.478Z,33.10
2022-09-21T17:33:10.666Z,33.35
2022-09-21T17:35:39.013Z,30.67
2022-09-21T17:38:06.080Z,28.58
2022-09-21T17:40:32.956Z,26.17
2022-09-21T17:43:22.184Z,33.00
2022-09-21T17:46:01.409Z,31.58
2022-09-21T17:48:33.221Z,32.90
2022-09-21T17:51:00.815Z,24.33
2022-09-21T17:53:40.977Z,22.50
2022-09-21T17:56:20.332Z,27.20
2022-09-21T17:58:58.131Z,34.92
2022-09-21T18:01:32.069Z,39.38
2022-09-21T18:03:58.903Z,27.95
2022-09-21T18:06:29.320Z,33.40
2022-09-21T18:08:57.335Z,26.65
2022-09-21T18:11:33.272Z,23.50
2022-09-21T18:14:20.295Z,18.38
2022-09-21T18:17:01.362Z,13.88
2022-09-21T18:19:38.165Z,11.80
2022-09-21T18:22:15.458Z,11.20
2022-09-21T18:24:42.316Z,8.93
2022-09-21T18:27:11.824Z,8.23
2022-09-21T18:29:42.262Z,7.15
2022-09-21T18:32:20.974Z,7.75
2022-09-21T18:35:08.600Z,8.75
2022-09-21T18:37:57.824Z,7.63
2022-09-21T18:40:59.385Z,7.57
2022-09-21T18:43:59.732Z,7.95
2022-09-21T18:46:33.939Z,8.77
2022-09-21T18:49:23.653Z,7.57
2022-09-21T18:52:02.369Z,7.18
2022-09-21T18:54:29.051Z,5.05
2022-09-21T18:56:55.969Z,5.25
2022-09-21T18:59:22.981Z,6.03
2022-09-21T19:01:50.633Z,4.85
2022-09-21T19:04:19.466Z,4.78
2022-09-21T19:06:53.194Z,5.10
2022-09-21T19:09:58.953Z,5.30
2022-09-21T19:13:00.089Z,8.75
2022-09-21T19:15:59.088Z,5.60
2022-09-21T19:18:46.345Z,7.68
2022-09-21T19:21:32.676Z,6.85
2022-09-21T19:24:15.261Z,10.60
2022-09-21T19:27:06.291Z,5.75
2022-09-21T19:29:49.830Z,8.20
2022-09-21T19:32:20.650Z,7.55
2022-09-21T19:34:47.591Z,7.07
2022-09-21T19:37:14.289Z,7.50
2022-09-21T19:39:41.267Z,8.88
2022-09-21T19:42:20.978Z,6.07
2022-09-21T19:45:01.382Z,6.80
2022-09-21T19:47:29.402Z,6.32
2022-09-21T19:50:05.851Z,6.40
2022-09-21T19:52:35.073Z,6.28
2022-09-21T19:55:20.881Z,5.85
2022-09-21T19:58:06.436Z,6.28
2022-09-21T20:00:33.207Z,6.97
2022-09-21T20:03:30.635Z,5.90
2022-09-21T20:06:06.106Z,6.95
2022-09-21T20:08:43.150Z,6.15
2022-09-21T20:11:15.114Z,5.00
2022-09-21T20:14:07.967Z,6.18
2022-09-21T20:16:43.639Z,7.70
2022-09-21T20:19:13.214Z,6.07
2022-09-21T20:21:43.667Z,5.05
2022-09-21T20:24:19.784Z,5.82
2022-09-21T20:26:50.958Z,5.57
2022-09-21T20:29:19.592Z,6.00
2022-09-21T20:31:48.822Z,7.13
2022-09-21T20:34:15.667Z,7.60
2022-09-21T20:36:42.181Z,6.80
2022-09-21T20:39:08.640Z,7.88
2022-09-21T20:41:35.217Z,12.00
2022-09-21T20:44:02.061Z,18.35
2022-09-21T20:46:28.585Z,14.15
2022-09-21T20:49:04.765Z,10.88
2022-09-21T20:51:33.883Z,7.72
2022-09-21T20:54:04.342Z,8.15
2022-09-21T20:56:31.169Z,5.43
2022-09-21T20:58:57.866Z,5.95
2022-09-21T21:01:24.647Z,5.13
2022-09-21T21:03:51.474Z,5.70
2022-09-21T21:06:21.606Z,4.82
2022-09-21T21:08:48.152Z,5.70
2022-09-21T21:11:14.643Z,4.68
2022-09-21T21:13:41.361Z,5.70
2022-09-21T21:16:11.765Z,4.35
2022-09-21T21:18:42.519Z,5.43
2022-09-21T21:21:09.065Z,4.03
2022-09-21T21:24:10.882Z,4.50
2022-09-21T21:27:00.824Z,4.25
2022-09-21T21:29:24.433Z,5.70
2022-09-21T21:31:51.220Z,5.30
2022-09-21T21:34:17.916Z,6.13
2022-09-21T21:36:44.367Z,4.05
2022-09-21T21:39:10.870Z,4.47
2022-09-21T21:41:37.427Z,4.00
2022-09-21T21:44:03.939Z,4.65
2022-09-21T21:46:30.500Z,8.73
2022-09-21T21:48:56.998Z,4.70
2022-09-21T21:51:23.571Z,7.22
2022-09-21T21:53:50.026Z,4.47
2022-09-21T21:56:17.614Z,4.97
2022-09-21T21:58:44.190Z,5.03
2022-09-21T22:01:19.221Z,4.10
2022-09-21T22:03:45.778Z,4.97
2022-09-21T22:06:12.225Z,5.30
2022-09-21T22:08:40.035Z,6.65
2022-09-21T22:11:07.494Z,7.80
2022-09-21T22:13:38.831Z,4.80
2022-09-21T22:16:07.493Z,4.50
2022-09-21T22:18:36.029Z,7.22
2022-09-21T22:21:12.518Z,7.10
2022-09-21T22:23:39.789Z,4.30
2022-09-21T22:26:13.465Z,5.63
2022-09-21T22:31:21.949Z,4.85
2022-09-21T22:33:49.249Z,5.78
2022-09-21T22:36:21.363Z,4.82
2022-09-21T22:38:49.431Z,5.43
2022-09-21T22:41:19.295Z,5.72
2022-09-21T22:43:47.327Z,5.45
2022-09-21T22:46:16.443Z,5.65
2022-09-21T22:48:43.552Z,5.97
2022-09-21T22:51:10.662Z,4.90
2022-09-21T22:53:37.575Z,5.75
2022-09-21T22:56:12.476Z,5.20
2022-09-21T22:58:42.552Z,4.90
2022-09-21T23:01:13.342Z,7.38
2022-09-21T23:03:41.631Z,6.32
2022-09-21T23:06:10.603Z,5.50
2022-09-21T23:08:37.731Z,8.02
2022-09-21T23:11:19.601Z,5.63
2022-09-21T23:13:46.644Z,8.27
2022-09-21T23:16:14.767Z,7.22
2022-09-21T23:18:42.457Z,7.50
2022-09-21T23:21:15.796Z,9.52
2022-09-21T23:23:43.070Z,8.02
2022-09-21T23:26:15.516Z,10.43
2022-09-21T23:28:44.301Z,8.93
2022-09-21T23:31:15.379Z,8.45
2022-09-21T23:33:48.278Z,8.13
2022-09-21T23:36:17.007Z,9.30
2022-09-21T23:38:44.030Z,7.85
2022-09-21T23:41:17.872Z,8.02
2022-09-21T23:43:48.711Z,7.93
2022-09-21T23:46:18.193Z,8.15
2022-09-21T23:48:45.123Z,7.85
2022-09-21T23:51:11.982Z,6.75
2022-09-21T23:53:39.687Z,6.22
2022-09-21T23:56:07.650Z,7.72
2022-09-21T23:58:34.360Z,6.30
